Time;durP1;ratioP1;P1;durP2;ratioP2;P2;SDS_P1;SDS_P2;PMS_P1;PMS_P2;Temp;Humidity;BMP_temperature;BMP_pressure;BME280_temperature;BME280_humidity;BME280_pressure;Samples;Min_cycle;Max_cycle;Signal;HPM_P1;HPM_P2
2023/11/10 00:00:10;;;;;;;2.93;1.60;;;;;;;12.26;61.05;96233.91;5039464;28;20488;-72
2023/11/10 00:02:45;;;;;;;1.80;1.40;;;;;;;12.28;60.99;96237.19;5048609;28;20215;-73
2023/11/10 00:05:11;;;;;;;1.70;1.57;;;;;;;12.31;61.42;96221.06;5040074;28;20461;-71
2023/11/10 00:07:38;;;;;;;1.30;1.20;;;;;;;12.34;61.07;96220.69;5051016;28;20468;-73
2023/11/10 00:10:04;;;;;;;1.50;1.37;;;;;;;12.30;61.53;96214.16;5039414;28;20202;-73
2023/11/10 00:12:30;;;;;;;5.63;1.70;;;;;;;12.31;61.50;96207.91;5042324;28;20426;-73
2023/11/10 00:14:57;;;;;;;1.50;1.40;;;;;;;12.31;61.49;96214.97;5043928;28;20952;-73
2023/11/10 00:17:23;;;;;;;2.50;1.40;;;;;;;12.28;61.72;96210.91;5042693;28;20206;-73
2023/11/10 00:19:49;;;;;;;2.40;1.60;;;;;;;12.28;61.88;96195.16;5051800;28;20445;-72
2023/11/10 00:22:14;;;;;;;1.53;1.43;;;;;;;12.24;61.96;96188.63;5051575;28;20499;-72
2023/11/10 00:24:40;;;;;;;4.33;1.70;;;;;;;12.20;62.51;96184.78;5041454;28;20728;-71
2023/11/10 00:27:07;;;;;;;4.10;1.30;;;;;;;12.12;62.42;96180.47;5046031;28;20191;-73
2023/11/10 00:29:33;;;;;;;1.20;1.03;;;;;;;12.13;63.12;96182.88;5026911;28;20289;-71
2023/11/10 00:31:59;;;;;;;2.03;1.40;;;;;;;12.14;62.75;96168.75;5049002;28;20433;-70
2023/11/10 00:34:24;;;;;;;1.50;1.40;;;;;;;12.15;62.94;96164.31;5048112;28;20421;-71
2023/11/10 00:36:50;;;;;;;1.40;1.20;;;;;;;12.12;62.96;96165.50;5051076;28;20240;-72
2023/11/10 00:39:17;;;;;;;1.30;1.20;;;;;;;12.13;62.86;96161.88;5039632;28;20786;-71
2023/11/10 00:41:44;;;;;;;1.73;1.27;;;;;;;12.10;62.44;96164.06;5048594;28;20269;-71
2023/11/10 00:44:10;;;;;;;1.30;1.20;;;;;;;12.16;62.43;96159.88;5036134;28;20483;-71
2023/11/10 00:46:36;;;;;;;2.10;1.10;;;;;;;12.18;62.41;96152.63;5029470;28;20433;-72
2023/11/10 00:49:01;;;;;;;4.43;1.20;;;;;;;12.17;61.80;96157.06;5050500;28;20460;-70
2023/11/10 00:51:28;;;;;;;1.10;1.00;;;;;;;12.14;61.95;96155.63;5042918;28;20192;-71
2023/11/10 00:53:54;;;;;;;1.00;0.70;;;;;;;12.09;61.98;96155.38;5046566;28;20194;-71
2023/11/10 00:56:19;;;;;;;1.10;0.80;;;;;;;12.06;61.88;96149.69;5048214;28;20941;-72
2023/11/10 00:58:45;;;;;;;1.10;0.83;;;;;;;11.93;61.80;96145.09;5047138;28;20207;-71
2023/11/10 01:01:10;;;;;;;1.90;0.80;;;;;;;11.95;62.19;96148.34;5027887;28;20233;-71
2023/11/10 01:03:36;;;;;;;1.10;0.90;;;;;;;11.99;62.23;96152.22;5050235;28;20327;-71
2023/11/10 01:06:01;;;;;;;1.67;0.90;;;;;;;12.00;62.09;96140.72;5050552;28;20201;-70
2023/11/10 01:08:27;;;;;;;4.03;1.00;;;;;;;12.02;61.90;96144.00;5049927;28;20623;-71
2023/11/10 01:10:52;;;;;;;2.40;1.20;;;;;;;11.94;61.96;96149.34;5044291;28;20202;-71
2023/11/10 01:13:17;;;;;;;1.10;1.00;;;;;;;11.96;61.72;96137.66;5047055;28;20186;-71
2023/11/10 01:15:43;;;;;;;4.40;1.00;;;;;;;11.98;61.84;96135.69;5047026;28;20217;-72
2023/11/10 01:18:08;;;;;;;1.50;0.80;;;;;;;11.96;61.50;96128.97;5047732;28;20238;-69
2023/11/10 01:20:34;;;;;;;1.00;0.90;;;;;;;11.89;61.64;96131.53;5042772;28;20201;-70
2023/11/10 01:22:59;;;;;;;1.63;0.90;;;;;;;11.91;61.67;96131.34;5046890;28;20241;-71
2023/11/10 01:25:25;;;;;;;4.23;1.13;;;;;;;11.92;61.53;96131.13;5043224;28;20785;-70
2023/11/10 01:27:53;;;;;;;1.97;1.00;;;;;;;11.90;61.49;96145.44;5041923;28;20202;-70
2023/11/10 01:30:19;;;;;;;0.90;0.70;;;;;;;11.92;61.37;96132.97;5050527;28;20253;-71
2023/11/10 01:32:45;;;;;;;1.30;0.90;;;;;;;11.90;61.16;96134.94;5049724;28;20957;-71
2023/11/10 01:35:11;;;;;;;1.00;0.83;;;;;;;11.84;61.38;96132.06;5050121;28;20457;-70
2023/11/10 01:37:36;;;;;;;1.10;0.80;;;;;;;11.89;61.09;96120.19;5042162;28;20226;-73
2023/11/10 01:40:02;;;;;;;1.87;0.80;;;;;;;11.95;60.84;96116.84;5043665;28;20195;-72
2023/11/10 01:42:28;;;;;;;1.93;0.83;;;;;;;11.91;60.74;96110.31;5046390;28;20253;-71
2023/11/10 01:44:53;;;;;;;1.67;0.90;;;;;;;11.87;61.21;96114.31;5049497;28;20470;-72
2023/11/10 01:47:19;;;;;;;1.30;0.80;;;;;;;11.90;60.96;96119.19;5050397;28;20223;-71
2023/11/10 01:49:45;;;;;;;1.23;0.80;;;;;;;11.90;61.35;96119.19;5049495;28;20210;-71
2023/11/10 01:52:12;;;;;;;0.90;0.70;;;;;;;11.86;61.20;96117.94;5032527;28;20218;-71
2023/11/10 01:54:37;;;;;;;1.50;0.80;;;;;;;11.91;61.36;96120.81;5041622;28;20196;-72
2023/11/10 01:57:04;;;;;;;1.00;0.83;;;;;;;11.89;61.15;96112.31;5024791;28;20799;-71
2023/11/10 01:59:31;;;;;;;1.00;0.80;;;;;;;11.90;61.55;96111.31;5050025;28;20276;-72
2023/11/10 02:01:57;;;;;;;1.17;0.87;;;;;;;11.88;61.14;96118.56;5027989;28;20443;-71
2023/11/10 02:04:23;;;;;;;1.80;0.87;;;;;;;11.83;61.49;96114.72;5043362;28;20501;-72
2023/11/10 02:06:48;;;;;;;2.50;1.03;;;;;;;11.81;61.51;96116.72;5048220;28;20245;-69
2023/11/10 02:09:14;;;;;;;2.00;0.90;;;;;;;11.81;61.85;96108.84;5044201;28;21211;-69
2023/11/10 02:11:39;;;;;;;1.03;0.70;;;;;;;11.80;61.60;96096.69;5046504;28;20967;-70
2023/11/10 02:14:07;;;;;;;0.90;0.60;;;;;;;11.84;61.88;96102.38;5047868;28;20236;-69
2023/11/10 02:16:33;;;;;;;3.40;0.80;;;;;;;11.89;61.55;96099.19;5044065;28;20187;-70
2023/11/10 02:18:58;;;;;;;0.90;0.80;;;;;;;11.86;61.83;96097.78;5023843;28;20461;-71
2023/11/10 02:21:24;;;;;;;3.50;0.90;;;;;;;11.91;61.86;96090.13;5039843;28;20218;-72
2023/11/10 02:23:52;;;;;;;1.00;0.90;;;;;;;11.92;61.35;96091.75;5036861;28;20296;-69
2023/11/10 02:26:17;;;;;;;1.20;0.83;;;;;;;11.92;61.96;96090.94;5031048;28;20191;-71
2023/11/10 02:28:43;;;;;;;1.30;0.80;;;;;;;11.93;62.05;96087.31;5036444;28;20529;-70
2023/11/10 02:31:08;;;;;;;1.67;1.10;;;;;;;11.84;62.24;96084.81;5049278;28;20269;-69
2023/11/10 02:33:34;;;;;;;1.50;0.90;;;;;;;11.92;61.84;96080.44;5030632;28;20273;-70
2023/11/10 02:36:00;;;;;;;1.50;0.90;;;;;;;11.84;62.53;96074.31;5045443;28;20192;-70
2023/11/10 02:38:25;;;;;;;1.80;1.00;;;;;;;11.86;62.15;96078.56;5037710;28;20211;-70
2023/11/10 02:40:51;;;;;;;1.30;1.20;;;;;;;11.80;62.63;96080.97;5045134;28;20816;-70
2023/11/10 02:43:17;;;;;;;1.10;1.00;;;;;;;11.76;62.75;96063.94;5049863;28;21239;-71
2023/11/10 02:45:43;;;;;;;1.10;1.00;;;;;;;11.76;63.27;96066.56;5037906;28;20191;-71
2023/11/10 02:48:10;;;;;;;1.63;0.83;;;;;;;11.78;63.13;96080.31;5042461;28;20469;-70
2023/11/10 02:50:37;;;;;;;2.07;1.03;;;;;;;11.71;62.91;96073.38;5048540;28;20733;-71
2023/11/10 02:53:02;;;;;;;1.77;1.00;;;;;;;11.63;63.45;96069.06;5036219;28;20427;-70
2023/11/10 02:55:28;;;;;;;1.07;0.97;;;;;;;11.68;63.20;96064.06;5040352;28;20674;-72
2023/11/10 02:57:53;;;;;;;1.20;1.00;;;;;;;11.64;62.61;96057.56;5045421;28;20279;-70
2023/11/10 03:00:19;;;;;;;2.30;0.93;;;;;;;11.74;62.61;96054.66;5038724;28;20264;-72
2023/11/10 03:02:44;;;;;;;1.70;1.10;;;;;;;11.71;62.83;96047.13;5046573;28;20686;-70
2023/11/10 03:05:10;;;;;;;1.00;0.80;;;;;;;11.68;62.28;96040.47;5036947;28;20241;-70
2023/11/10 03:07:36;;;;;;;1.40;1.00;;;;;;;11.70;62.33;96042.88;5040507;28;20278;-71
2023/11/10 03:10:03;;;;;;;1.23;0.83;;;;;;;11.73;62.12;96045.94;5043120;28;20260;-70
2023/11/10 03:12:32;;;;;;;1.27;0.90;;;;;;;11.71;62.17;96047.13;5047821;28;20480;-70
2023/11/10 03:14:58;;;;;;;1.20;0.90;;;;;;;11.63;61.92;96040.19;5040010;28;20454;-72
2023/11/10 03:17:24;;;;;;;1.07;0.83;;;;;;;11.62;62.28;96043.81;5043587;28;20894;-72
2023/11/10 03:19:49;;;;;;;1.03;0.80;;;;;;;11.64;62.32;96049.69;5037930;28;20454;-71
2023/11/10 03:22:17;;;;;;;1.00;0.70;;;;;;;11.67;61.88;96051.97;5037191;28;20605;-70
2023/11/10 03:24:42;;;;;;;0.90;0.70;;;;;;;11.63;61.67;96050.69;5044765;28;20191;-70
2023/11/10 03:27:08;;;;;;;2.60;0.70;;;;;;;11.57;61.58;96046.22;5044535;28;20429;-70
2023/11/10 03:29:34;;;;;;;1.00;0.73;;;;;;;11.56;61.78;96055.06;5048055;28;20239;-71
2023/11/10 03:32:01;;;;;;;0.80;0.60;;;;;;;11.43;61.89;96061.81;5047431;28;20437;-71
2023/11/10 03:34:26;;;;;;;1.33;0.70;;;;;;;11.57;61.49;96060.13;5024298;28;20427;-71
2023/11/10 03:36:53;;;;;;;1.53;0.70;;;;;;;11.59;61.62;96054.72;5034585;28;20525;-72
2023/11/10 03:39:18;;;;;;;1.43;0.60;;;;;;;11.64;61.54;96052.31;5047997;28;20261;-70
2023/11/10 03:41:44;;;;;;;0.80;0.60;;;;;;;11.68;61.18;96066.69;5047511;28;20469;-72
2023/11/10 03:44:09;;;;;;;2.07;0.60;;;;;;;11.72;60.72;96067.13;5046407;28;20341;-73
2023/11/10 03:46:35;;;;;;;1.20;0.70;;;;;;;11.70;60.92;96061.25;5036424;28;20191;-70
2023/11/10 03:49:00;;;;;;;1.20;0.67;;;;;;;11.63;60.90;96058.56;5044332;28;20588;-74
2023/11/10 03:51:26;;;;;;;1.27;0.50;;;;;;;11.66;60.88;96056.38;5025164;28;20306;-71
2023/11/10 03:53:54;;;;;;;1.40;0.70;;;;;;;11.64;60.80;96063.66;5043845;28;20199;-72
2023/11/10 03:56:19;;;;;;;0.80;0.50;;;;;;;11.67;60.93;96062.44;5032296;28;20202;-73
2023/11/10 03:58:45;;;;;;;1.57;0.53;;;;;;;11.63;61.33;96064.66;5044766;28;20868;-71
2023/11/10 04:01:11;;;;;;;0.83;0.60;;;;;;;11.60;61.13;96058.94;5040763;28;20270;-71
2023/11/10 04:03:41;;;;;;;0.83;0.60;;;;;;;11.64;61.27;96062.81;5036145;28;20322;-71
2023/11/10 04:06:07;;;;;;;5.73;0.67;;;;;;;11.68;61.46;96059.63;5028175;28;21000;-73
2023/11/10 04:08:33;;;;;;;1.30;0.80;;;;;;;11.61;61.48;96064.00;5041118;28;20485;-70
2023/11/10 04:10:58;;;;;;;2.50;0.60;;;;;;;11.63;61.64;96066.44;5045267;28;20199;-70
2023/11/10 04:13:23;;;;;;;0.80;0.60;;;;;;;11.61;61.45;96063.19;5048016;28;20191;-72
2023/11/10 04:15:49;;;;;;;1.33;0.50;;;;;;;11.57;61.68;96067.19;5046791;28;20190;-71
2023/11/10 04:18:16;;;;;;;0.90;0.60;;;;;;;11.60;61.53;96069.44;5027193;28;20207;-72
2023/11/10 04:20:44;;;;;;;3.37;0.53;;;;;;;11.62;61.53;96063.03;5047415;28;20568;-71
2023/11/10 04:23:10;;;;;;;1.93;0.60;;;;;;;11.64;61.70;96075.94;5038966;28;20552;-72
2023/11/10 04:25:36;;;;;;;2.60;0.60;;;;;;;11.67;61.54;96072.94;5038081;28;20532;-71
2023/11/10 04:28:02;;;;;;;1.00;0.63;;;;;;;11.69;61.64;96060.47;5046298;28;20662;-71
2023/11/10 04:30:28;;;;;;;0.80;0.50;;;;;;;11.64;61.10;96057.56;5047125;28;20273;-71
2023/11/10 04:32:54;;;;;;;0.90;0.60;;;;;;;11.69;61.40;96068.34;5046099;28;20517;-72
2023/11/10 04:35:20;;;;;;;2.03;0.80;;;;;;;11.60;61.16;96069.44;5046407;28;20272;-70
2023/11/10 04:37:45;;;;;;;2.07;0.60;;;;;;;11.58;60.95;96066.19;5023268;28;20437;-72
2023/11/10 04:40:11;;;;;;;0.80;0.50;;;;;;;11.60;61.27;96066.81;5038863;28;20244;-71
2023/11/10 04:42:38;;;;;;;0.80;0.60;;;;;;;11.49;60.51;96061.06;5046705;28;22108;-72
2023/11/10 04:45:04;;;;;;;1.00;0.50;;;;;;;11.59;60.84;96062.59;5037559;28;20199;-71
2023/11/10 04:47:29;;;;;;;2.83;0.50;;;;;;;11.56;60.38;96060.31;5047807;28;20425;-72
2023/11/10 04:49:55;;;;;;;1.00;0.50;;;;;;;11.62;60.34;96062.19;5048870;28;20242;-71
2023/11/10 04:52:20;;;;;;;0.90;0.50;;;;;;;11.52;60.13;96070.38;5050046;28;20227;-70
2023/11/10 04:54:46;;;;;;;0.80;0.50;;;;;;;11.59;59.95;96070.47;5050157;28;20225;-70
2023/11/10 04:57:13;;;;;;;0.80;0.50;;;;;;;11.58;60.05;96069.63;5047724;28;20667;-71
2023/11/10 04:59:39;;;;;;;0.70;0.40;;;;;;;11.60;59.78;96070.25;5050555;28;20817;-70
2023/11/10 05:02:08;;;;;;;0.90;0.50;;;;;;;11.58;59.93;96081.94;5045706;28;20434;-70
2023/11/10 05:04:36;;;;;;;1.27;0.50;;;;;;;11.61;59.94;96092.06;5050417;28;20846;-71
2023/11/10 05:07:01;;;;;;;0.80;0.50;;;;;;;11.58;59.86;96092.44;5041242;28;20466;-70
2023/11/10 05:09:27;;;;;;;9.03;0.70;;;;;;;11.54;59.75;96084.09;5042687;28;20455;-70
2023/11/10 05:11:53;;;;;;;0.83;0.57;;;;;;;11.59;59.83;96084.38;5045544;28;20191;-72
2023/11/10 05:14:18;;;;;;;0.80;0.50;;;;;;;11.48;59.49;96085.66;5046209;28;20712;-71
2023/11/10 05:16:44;;;;;;;0.97;0.60;;;;;;;11.37;59.94;96078.28;5048960;28;20659;-70
2023/11/10 05:19:10;;;;;;;0.80;0.50;;;;;;;11.40;59.57;96091.03;5041119;28;20221;-70
2023/11/10 05:21:35;;;;;;;0.80;0.50;;;;;;;11.37;60.30;96088.78;5044282;28;20198;-73
2023/11/10 05:24:00;;;;;;;1.00;0.40;;;;;;;11.43;60.15;96084.59;5048667;28;20246;-70
2023/11/10 05:26:26;;;;;;;0.70;0.40;;;;;;;11.36;60.31;96087.13;5038856;28;20191;-72
2023/11/10 05:28:51;;;;;;;0.80;0.60;;;;;;;11.42;60.44;96089.03;5041577;28;20211;-72
2023/11/10 05:31:17;;;;;;;1.63;0.60;;;;;;;11.46;60.05;96092.94;5039690;28;20664;-71
2023/11/10 05:33:42;;;;;;;2.90;0.57;;;;;;;11.42;60.46;96096.09;5045587;28;20180;-71
2023/11/10 05:36:08;;;;;;;1.13;0.70;;;;;;;11.40;60.52;96104.16;5048025;28;20564;-72
2023/11/10 05:38:33;;;;;;;0.80;0.60;;;;;;;11.35;60.50;96086.34;5048134;28;20559;-73
2023/11/10 05:40:59;;;;;;;1.10;0.60;;;;;;;11.39;60.51;96080.72;5049157;28;20221;-72
2023/11/10 05:43:25;;;;;;;0.80;0.53;;;;;;;11.32;60.82;96076.22;5047535;28;20215;-71
2023/11/10 05:45:50;;;;;;;1.50;0.50;;;;;;;11.39;60.45;96078.09;5042217;28;20183;-69
2023/11/10 05:48:16;;;;;;;0.70;0.50;;;;;;;11.39;60.20;96076.28;5049060;28;20834;-73
2023/11/10 05:50:41;;;;;;;0.80;0.50;;;;;;;11.43;60.29;96090.66;5044318;28;20687;-70
2023/11/10 05:53:06;;;;;;;0.80;0.50;;;;;;;11.37;60.27;96094.84;5043033;28;20260;-69
2023/11/10 05:55:34;;;;;;;0.80;0.50;;;;;;;11.36;60.15;96095.84;5048894;28;20235;-71
2023/11/10 05:57:59;;;;;;;0.80;0.47;;;;;;;11.37;60.01;96107.13;5048638;28;20314;-70
2023/11/10 06:00:25;;;;;;;1.10;0.50;;;;;;;11.39;59.99;96110.38;5028396;28;20517;-71
2023/11/10 06:02:50;;;;;;;0.80;0.50;;;;;;;11.34;60.02;96107.53;5040382;28;20336;-71
2023/11/10 06:05:16;;;;;;;0.80;0.53;;;;;;;11.31;60.09;96110.50;5042961;28;20197;-69
2023/11/10 06:07:45;;;;;;;0.90;0.60;;;;;;;11.28;60.50;96121.34;5044130;28;20198;-70
2023/11/10 06:10:12;;;;;;;1.37;0.50;;;;;;;11.27;60.45;96124.97;5048335;28;20698;-71
2023/11/10 06:12:38;;;;;;;1.20;0.60;;;;;;;11.25;60.43;96124.34;5047488;28;20433;-73
2023/11/10 06:15:06;;;;;;;1.53;0.70;;;;;;;11.30;60.25;96122.00;5046448;28;20445;-71
2023/11/10 06:17:33;;;;;;;1.33;0.70;;;;;;;11.31;60.49;96121.00;5044690;28;20201;-71
2023/11/10 06:19:58;;;;;;;2.00;0.77;;;;;;;11.30;60.68;96125.41;5040228;28;20464;-71
2023/11/10 06:22:25;;;;;;;0.83;0.60;;;;;;;11.30;60.81;96129.84;5048186;28;21004;-71
2023/11/10 06:24:50;;;;;;;1.33;1.00;;;;;;;11.33;60.83;96121.63;5040128;28;20191;-72
2023/11/10 06:27:16;;;;;;;1.97;1.30;;;;;;;11.32;60.60;96123.44;5026340;28;20532;-73
2023/11/10 06:29:41;;;;;;;3.30;1.20;;;;;;;11.33;60.73;96126.88;5047360;28;20211;-70
2023/11/10 06:32:09;;;;;;;1.03;0.60;;;;;;;11.36;60.61;96135.19;5048011;28;20800;-72
2023/11/10 06:34:35;;;;;;;1.00;0.70;;;;;;;11.36;60.45;96142.22;5047228;28;20199;-72
2023/11/10 06:37:01;;;;;;;0.90;0.60;;;;;;;11.36;60.64;96150.09;5048246;28;20422;-71
2023/11/10 06:39:26;;;;;;;0.90;0.70;;;;;;;11.37;60.37;96151.72;5032306;28;20211;-72
2023/11/10 06:41:52;;;;;;;1.27;0.83;;;;;;;11.40;60.35;96155.81;5045208;28;20513;-72
2023/11/10 06:44:19;;;;;;;1.80;0.80;;;;;;;11.36;60.51;96155.34;5038046;28;20220;-70
2023/11/10 06:46:45;;;;;;;2.60;0.97;;;;;;;11.34;60.64;96162.59;5045367;28;20214;-72
2023/11/10 06:49:10;;;;;;;1.70;1.23;;;;;;;11.39;60.64;96157.59;5044742;28;20970;-72
2023/11/10 06:51:36;;;;;;;2.20;1.43;;;;;;;11.40;60.43;96161.06;5043047;28;20425;-71
2023/11/10 06:54:01;;;;;;;2.17;1.50;;;;;;;11.41;60.41;96153.00;5045549;28;20236;-71
2023/11/10 06:56:26;;;;;;;3.07;1.90;;;;;;;11.38;60.71;96153.34;5044405;28;20279;-71
2023/11/10 06:58:52;;;;;;;5.73;2.07;;;;;;;11.36;59.98;96143.06;5045732;28;20305;-70
2023/11/10 07:01:17;;;;;;;2.33;1.63;;;;;;;11.31;60.72;96145.41;5045779;28;20221;-70
2023/11/10 07:03:43;;;;;;;8.13;2.90;;;;;;;11.36;60.67;96155.34;5040688;28;20290;-70
2023/11/10 07:06:09;;;;;;;6.50;3.13;;;;;;;11.35;60.41;96153.72;5040354;28;20190;-69
2023/11/10 07:08:34;;;;;;;5.40;2.80;;;;;;;11.36;60.89;96156.16;5049698;28;20211;-70
2023/11/10 07:11:02;;;;;;;6.77;2.80;;;;;;;11.37;60.68;96159.59;5039440;28;20191;-72
2023/11/10 07:13:28;;;;;;;3.00;2.30;;;;;;;11.36;60.56;96165.84;5047434;28;20195;-72
2023/11/10 07:15:57;;;;;;;2.53;1.93;;;;;;;11.36;60.81;96155.34;5040592;28;20437;-74
2023/11/10 07:18:24;;;;;;;2.57;1.60;;;;;;;11.31;60.72;96153.28;5055446;28;20451;-71
2023/11/10 07:20:50;;;;;;;1.90;1.70;;;;;;;11.29;60.90;96151.84;5054613;28;20421;-73
2023/11/10 07:23:15;;;;;;;1.20;1.10;;;;;;;11.28;61.01;96158.06;5052625;28;20557;-70
2023/11/10 07:25:41;;;;;;;1.30;1.10;;;;;;;11.28;60.49;96160.69;5044307;28;20273;-71
2023/11/10 07:28:07;;;;;;;5.67;1.23;;;;;;;11.37;60.81;96172.72;5047087;28;20245;-71
2023/11/10 07:30:32;;;;;;;1.60;1.30;;;;;;;11.35;60.79;96178.16;5048759;28;20217;-70
2023/11/10 07:32:58;;;;;;;3.17;1.40;;;;;;;11.61;63.68;96174.22;5047580;28;20910;-71
2023/11/10 07:35:23;;;;;;;2.90;1.20;;;;;;;11.86;63.46;96173.06;5046736;28;20195;-71
2023/11/10 07:37:49;;;;;;;3.63;2.07;;;;;;;11.98;61.78;96176.88;5039430;28;20188;-73
2023/11/10 07:40:15;;;;;;;2.40;0.93;;;;;;;12.14;60.82;96181.88;5038060;28;20198;-70
2023/11/10 07:42:42;;;;;;;3.30;1.23;;;;;;;12.30;60.31;96182.66;5038082;28;20226;-72
2023/11/10 07:45:14;;;;;;;3.03;1.10;;;;;;;12.59;60.47;96175.63;5046089;28;20562;-72
2023/11/10 07:47:41;;;;;;;5.40;1.60;;;;;;;12.64;58.94;96172.41;5019445;28;20836;-72
2023/11/10 07:50:07;;;;;;;2.03;0.93;;;;;;;12.65;58.74;96172.22;5007818;28;20848;-70
2023/11/10 07:52:33;;;;;;;1.20;0.77;;;;;;;12.59;58.06;96176.41;5040502;28;20438;-71
2023/11/10 07:54:58;;;;;;;1.83;1.27;;;;;;;12.64;59.17;96178.47;5038220;28;20222;-71
2023/11/10 07:57:27;;;;;;;1.30;1.00;;;;;;;12.72;57.17;96174.91;5039027;28;20191;-72
2023/11/10 07:59:52;;;;;;;1.50;0.90;;;;;;;12.67;57.36;96174.63;5019951;28;20212;-70
2023/11/10 08:02:19;;;;;;;1.77;1.37;;;;;;;12.58;57.67;96180.03;5038490;28;20494;-70
2023/11/10 08:04:44;;;;;;;2.17;1.00;;;;;;;12.56;57.88;96181.25;5036991;28;20184;-71
2023/11/10 08:07:10;;;;;;;1.10;0.80;;;;;;;12.75;57.14;96180.56;5039806;28;20415;-71
2023/11/10 08:09:35;;;;;;;3.33;1.13;;;;;;;12.84;57.87;96188.34;5041958;28;20207;-72
2023/11/10 08:12:01;;;;;;;0.87;0.70;;;;;;;12.56;57.00;96187.31;5041829;28;20211;-71
2023/11/10 08:14:27;;;;;;;1.37;0.73;;;;;;;12.54;57.55;96191.13;5024637;28;20195;-72
2023/11/10 08:16:53;;;;;;;0.90;0.70;;;;;;;12.43;57.54;96187.19;5040937;28;20278;-71
2023/11/10 08:19:18;;;;;;;1.10;0.70;;;;;;;12.43;57.60;96182.75;5043687;28;20899;-71
2023/11/10 08:21:44;;;;;;;1.93;0.83;;;;;;;12.47;57.26;96192.91;5046618;28;20194;-72
2023/11/10 08:24:09;;;;;;;1.47;0.87;;;;;;;12.42;58.22;96186.38;5049329;28;20203;-72
2023/11/10 08:26:34;;;;;;;1.97;0.90;;;;;;;12.52;58.60;96185.25;5050674;28;20274;-71
2023/11/10 08:29:00;;;;;;;1.67;0.70;;;;;;;12.63;58.18;96192.63;5049793;28;20234;-71
2023/11/10 08:31:25;;;;;;;2.70;0.77;;;;;;;12.65;57.75;96180.09;5049702;28;20211;-71
2023/11/10 08:33:51;;;;;;;0.90;0.60;;;;;;;12.62;57.70;96191.00;5050791;28;20207;-70
2023/11/10 08:36:18;;;;;;;1.10;0.70;;;;;;;12.67;57.57;96199.13;5046680;28;20187;-71
2023/11/10 08:38:44;;;;;;;0.90;0.67;;;;;;;12.75;57.11;96195.56;5050953;28;20214;-71
2023/11/10 08:41:12;;;;;;;1.13;0.90;;;;;;;12.84;56.94;96198.84;5046249;28;20522;-72
2023/11/10 08:43:38;;;;;;;2.90;0.80;;;;;;;12.89;57.04;96193.81;5049363;28;20207;-71
2023/11/10 08:46:03;;;;;;;1.57;0.70;;;;;;;12.85;56.53;96195.22;5051058;28;20421;-70
2023/11/10 08:48:29;;;;;;;0.90;0.60;;;;;;;13.14;55.30;96201.25;5038985;28;20215;-70
2023/11/10 08:50:54;;;;;;;2.40;0.90;;;;;;;13.25;55.52;96203.34;5045461;28;20595;-71
2023/11/10 08:53:20;;;;;;;4.07;0.90;;;;;;;13.82;55.19;96195.34;5049495;28;20195;-72
2023/11/10 08:55:45;;;;;;;2.20;0.60;;;;;;;14.36;53.67;96200.75;5038439;28;20215;-71
2023/11/10 08:58:10;;;;;;;2.10;0.80;;;;;;;14.89;52.06;96200.00;5041307;28;20242;-72
2023/11/10 09:00:36;;;;;;;0.90;0.67;;;;;;;15.03;50.70;96187.59;5048607;28;20214;-70
2023/11/10 09:03:02;;;;;;;1.10;0.70;;;;;;;15.12;49.67;96196.91;5042254;28;20691;-71
2023/11/10 09:05:27;;;;;;;1.00;0.70;;;;;;;15.47;49.95;96201.91;5022028;28;20191;-72
2023/11/10 09:07:52;;;;;;;1.40;0.60;;;;;;;15.87;48.28;96205.47;5046911;28;20187;-72
2023/11/10 09:10:18;;;;;;;8.10;0.80;;;;;;;16.00;47.73;96197.47;5040354;28;20285;-71
2023/11/10 09:12:48;;;;;;;1.10;0.90;;;;;;;15.88;47.71;96201.81;5050388;28;20183;-70
2023/11/10 09:15:15;;;;;;;0.97;0.73;;;;;;;16.06;47.05;96204.53;5029919;28;20302;-70
2023/11/10 09:17:41;;;;;;;0.90;0.60;;;;;;;16.47;47.57;96199.00;5050097;28;20512;-70
2023/11/10 09:20:07;;;;;;;0.83;0.60;;;;;;;16.33;46.08;96204.38;5047942;28;20259;-69
2023/11/10 09:22:36;;;;;;;1.40;0.60;;;;;;;16.18;46.68;96204.69;5043087;28;20519;-70
2023/11/10 09:25:04;;;;;;;1.77;0.80;;;;;;;16.01;46.66;96207.00;5041319;28;20184;-70
2023/11/10 09:27:30;;;;;;;0.93;0.83;;;;;;;15.85;47.62;96203.00;5037524;28;20843;-70
2023/11/10 09:29:56;;;;;;;2.13;0.67;;;;;;;16.03;47.44;96212.09;5042847;28;21110;-71
2023/11/10 09:32:21;;;;;;;1.20;0.73;;;;;;;16.45;47.22;96211.63;5041739;28;20516;-71
2023/11/10 09:34:47;;;;;;;1.30;0.80;;;;;;;16.95;45.58;96206.41;5044806;28;20914;-70
2023/11/10 09:37:14;;;;;;;1.00;0.70;;;;;;;16.96;45.43;96194.78;5041288;28;20183;-71
2023/11/10 09:39:39;;;;;;;3.47;0.70;;;;;;;16.97;44.39;96209.63;5046862;28;20284;-72
2023/11/10 09:42:07;;;;;;;3.57;0.90;;;;;;;16.89;44.90;96212.50;5049663;28;20490;-71
2023/11/10 09:44:37;;;;;;;1.00;0.70;;;;;;;16.58;45.13;96212.34;5044336;28;20292;-72
2023/11/10 09:47:03;;;;;;;1.00;0.60;;;;;;;16.51;45.17;96211.59;5046807;28;20421;-71
2023/11/10 09:49:30;;;;;;;1.33;0.70;;;;;;;16.32;45.96;96223.91;5046008;28;20449;-70
2023/11/10 09:51:55;;;;;;;2.30;0.77;;;;;;;16.13;45.66;96212.44;5032109;28;20426;-71
2023/11/10 09:54:21;;;;;;;0.90;0.60;;;;;;;15.92;46.20;96214.38;5031449;28;21118;-71
2023/11/10 09:56:47;;;;;;;2.10;0.60;;;;;;;15.59;46.77;96214.47;5045042;28;20739;-70
2023/11/10 09:59:13;;;;;;;1.07;0.90;;;;;;;15.38;47.57;96218.19;5047908;28;20527;-71
2023/11/10 10:01:38;;;;;;;1.00;0.80;;;;;;;15.11;48.95;96224.34;5028183;28;20188;-72
2023/11/10 10:04:04;;;;;;;1.20;0.70;;;;;;;14.79;48.43;96215.41;5046666;28;20203;-71
2023/11/10 10:06:31;;;;;;;2.20;0.60;;;;;;;14.54;48.60;96208.09;5045096;28;20190;-72
2023/11/10 10:08:57;;;;;;;2.50;1.10;;;;;;;14.33;49.45;96201.97;5021809;28;20447;-70
2023/11/10 10:11:22;;;;;;;2.30;0.70;;;;;;;14.29;49.61;96206.03;5040073;28;20522;-70
2023/11/10 10:13:48;;;;;;;1.10;0.50;;;;;;;14.26;49.57;96207.22;5027460;28;20522;-70
2023/11/10 10:16:13;;;;;;;1.53;0.80;;;;;;;14.18;49.77;96209.22;5048971;28;20186;-69
2023/11/10 10:18:45;;;;;;;1.57;0.73;;;;;;;14.03;50.33;96201.50;5044996;28;20268;-72
2023/11/10 10:21:11;;;;;;;2.40;0.90;;;;;;;13.89;51.00;96196.19;5037301;28;20198;-73
2023/11/10 10:23:36;;;;;;;1.00;0.90;;;;;;;13.73;51.03;96202.63;5041653;28;21014;-72
2023/11/10 10:26:09;;;;;;;1.97;0.80;;;;;;;13.59;51.59;96196.50;5044637;28;20556;-70
2023/11/10 10:28:34;;;;;;;2.17;1.03;;;;;;;13.55;51.84;96189.16;5039090;28;20881;-71
2023/11/10 10:31:01;;;;;;;2.53;0.83;;;;;;;14.06;52.12;96186.09;5025401;28;20580;-71
2023/11/10 10:33:26;;;;;;;1.37;0.90;;;;;;;14.49;50.60;96184.13;5024856;28;20183;-71
2023/11/10 10:35:52;;;;;;;3.00;0.73;;;;;;;14.89;49.09;96178.88;5048923;28;20513;-71
2023/11/10 10:38:20;;;;;;;2.30;0.87;;;;;;;15.20;48.45;96180.88;5043115;28;20287;-70
2023/11/10 10:40:45;;;;;;;1.20;0.70;;;;;;;15.29;47.47;96173.53;5046533;28;20242;-71
2023/11/10 10:43:12;;;;;;;2.33;0.60;;;;;;;15.65;47.83;96172.19;5025379;28;20894;-69
2023/11/10 10:45:39;;;;;;;1.37;0.70;;;;;;;15.92;46.25;96176.56;5030249;28;20193;-71
2023/11/10 10:48:05;;;;;;;1.50;0.90;;;;;;;15.80;46.07;96173.75;5048590;28;20434;-70
2023/11/10 10:50:32;;;;;;;4.40;0.97;;;;;;;15.87;46.27;96174.56;5048320;28;21091;-71
2023/11/10 10:52:59;;;;;;;1.37;0.70;;;;;;;16.16;44.67;96171.56;5046332;28;20189;-71
2023/11/10 10:55:26;;;;;;;0.90;0.60;;;;;;;16.77;44.19;96171.91;5042572;28;20441;-70
2023/11/10 10:57:53;;;;;;;1.10;0.90;;;;;;;17.37;43.03;96165.28;5045608;28;20429;-71
2023/11/10 11:00:20;;;;;;;1.87;0.70;;;;;;;17.89;41.15;96154.25;5048237;28;20434;-72
2023/11/10 11:02:53;;;;;;;1.20;0.60;;;;;;;17.99;40.64;96156.38;5041840;28;20458;-74
2023/11/10 11:05:47;;;;;;;0.90;0.67;;;;;;;18.41;40.05;96151.88;5027501;28;20436;-71
2023/11/10 11:08:41;;;;;;;1.60;0.83;;;;;;;18.96;39.19;96139.38;5028335;28;20437;-71
2023/11/10 11:11:56;;;;;;;3.10;0.80;;;;;;;19.42;38.28;96142.19;5048330;28;20426;-71
2023/11/10 11:14:36;;;;;;;4.83;1.43;;;;;;;19.39;37.40;96144.50;5008629;28;20453;-71
2023/11/10 11:17:45;;;;;;;1.23;0.80;;;;;;;19.39;34.97;96148.00;5040099;28;20425;-71
2023/11/10 11:20:14;;;;;;;1.20;0.70;;;;;;;19.40;34.55;96143.47;5047011;28;20457;-73
2023/11/10 11:22:40;;;;;;;1.10;0.60;;;;;;;19.49;34.25;96144.72;5030273;28;20873;-72
2023/11/10 11:25:08;;;;;;;2.00;0.60;;;;;;;19.37;34.46;96134.13;5039372;28;20433;-71
2023/11/10 11:27:34;;;;;;;1.00;0.50;;;;;;;19.33;34.33;96138.28;5046102;28;20186;-72
2023/11/10 11:30:07;;;;;;;1.93;0.80;;;;;;;19.47;33.76;96139.66;5046043;28;21058;-72